Terminal Aerodrome Forecast
Issued by NWS Grand Forks, ND

Home | Current Version | Previous Version | Text Only | Print | Product List | Glossary Off
Versions: 1 2 3 4 5 6 7 8 9 10 11 12 13 14 15 16 17 18 19 20 21 22 23 24

000
FTUS43 KFGF 252252 AAD
TAFFAR
TAF AMD
KFAR 252252Z 2523/2618 26012KT P6SM BKN025
     FM260200 28008KT P6SM BKN050
     FM260400 30008KT P6SM BKN040=

USA.gov is the U.S. government's official web portal to all federal, state and local government web resources and services.